sensor_id;sensor_type;location;lat;lon;timestamp;pressure;altitude;pressure_sealevel;temperature;humidity
27429;BME280;14881;48.092;11.574;2023-11-21T00:00:38;94979.00;;;7.02;100.00
27429;BME280;14881;48.092;11.574;2023-11-21T00:03:06;94965.25;;;6.93;100.00
27429;BME280;14881;48.092;11.574;2023-11-21T00:05:33;94967.22;;;6.88;100.00
27429;BME280;14881;48.092;11.574;2023-11-21T00:07:59;94959.16;;;6.78;100.00
27429;BME280;14881;48.092;11.574;2023-11-21T00:10:25;94960.84;;;6.63;100.00
27429;BME280;14881;48.092;11.574;2023-11-21T00:12:52;94961.66;;;6.64;100.00
27429;BME280;14881;48.092;11.574;2023-11-21T00:15:20;94952.22;;;6.61;100.00
27429;BME280;14881;48.092;11.574;2023-11-21T00:17:47;94962.50;;;6.59;100.00
27429;BME280;14881;48.092;11.574;2023-11-21T00:20:15;94948.78;;;6.56;100.00
27429;BME280;14881;48.092;11.574;2023-11-21T00:22:41;94940.66;;;6.56;100.00
27429;BME280;14881;48.092;11.574;2023-11-21T00:25:08;94949.59;;;6.51;100.00
27429;BME280;14881;48.092;11.574;2023-11-21T00:27:35;94945.81;;;6.52;100.00
27429;BME280;14881;48.092;11.574;2023-11-21T00:30:02;94935.81;;;6.53;100.00
27429;BME280;14881;48.092;11.574;2023-11-21T00:32:30;94941.47;;;6.56;100.00
27429;BME280;14881;48.092;11.574;2023-11-21T00:34:57;94933.34;;;6.61;100.00
27429;BME280;14881;48.092;11.574;2023-11-21T00:37:24;94934.94;;;6.62;100.00
27429;BME280;14881;48.092;11.574;2023-11-21T00:39:50;94929.28;;;6.64;100.00
27429;BME280;14881;48.092;11.574;2023-11-21T00:42:17;94929.28;;;6.59;100.00
27429;BME280;14881;48.092;11.574;2023-11-21T00:44:43;94922.06;;;6.54;100.00
27429;BME280;14881;48.092;11.574;2023-11-21T00:47:09;94923.97;;;6.44;100.00
27429;BME280;14881;48.092;11.574;2023-11-21T00:49:36;94925.94;;;6.33;100.00
27429;BME280;14881;48.092;11.574;2023-11-21T00:52:03;94920.00;;;6.31;100.00
27429;BME280;14881;48.092;11.574;2023-11-21T00:54:30;94920.59;;;6.23;100.00
27429;BME280;14881;48.092;11.574;2023-11-21T00:57:00;94930.34;;;6.09;100.00
27429;BME280;14881;48.092;11.574;2023-11-21T00:59:26;94925.53;;;6.06;100.00
27429;BME280;14881;48.092;11.574;2023-11-21T01:01:53;94927.41;;;6.05;100.00
27429;BME280;14881;48.092;11.574;2023-11-21T01:04:20;94929.84;;;5.97;100.00
27429;BME280;14881;48.092;11.574;2023-11-21T01:06:46;94932.84;;;5.90;100.00
27429;BME280;14881;48.092;11.574;2023-11-21T01:09:12;94930.16;;;5.80;100.00
27429;BME280;14881;48.092;11.574;2023-11-21T01:11:40;94929.34;;;5.79;100.00
27429;BME280;14881;48.092;11.574;2023-11-21T01:14:06;94935.53;;;5.75;100.00
27429;BME280;14881;48.092;11.574;2023-11-21T01:16:34;94931.22;;;5.74;100.00
27429;BME280;14881;48.092;11.574;2023-11-21T01:19:01;94929.38;;;5.64;100.00
27429;BME280;14881;48.092;11.574;2023-11-21T01:21:27;94935.31;;;5.56;100.00
27429;BME280;14881;48.092;11.574;2023-11-21T01:23:54;94927.75;;;5.58;100.00
27429;BME280;14881;48.092;11.574;2023-11-21T01:26:21;94921.03;;;5.55;100.00
27429;BME280;14881;48.092;11.574;2023-11-21T01:28:48;94924.56;;;5.46;100.00
27429;BME280;14881;48.092;11.574;2023-11-21T01:31:15;94925.63;;;5.40;100.00
27429;BME280;14881;48.092;11.574;2023-11-21T01:33:41;94922.97;;;5.35;100.00
27429;BME280;14881;48.092;11.574;2023-11-21T01:36:09;94928.63;;;5.28;100.00
27429;BME280;14881;48.092;11.574;2023-11-21T01:38:35;94935.34;;;5.25;100.00
27429;BME280;14881;48.092;11.574;2023-11-21T01:41:01;94926.72;;;5.23;100.00
27429;BME280;14881;48.092;11.574;2023-11-21T01:43:28;94939.66;;;5.32;100.00
27429;BME280;14881;48.092;11.574;2023-11-21T01:45:57;94933.72;;;5.24;100.00
27429;BME280;14881;48.092;11.574;2023-11-21T01:48:23;94934.28;;;5.16;100.00
27429;BME280;14881;48.092;11.574;2023-11-21T01:50:50;94932.13;;;5.08;100.00
27429;BME280;14881;48.092;11.574;2023-11-21T01:53:17;94925.66;;;5.24;100.00
27429;BME280;14881;48.092;11.574;2023-11-21T01:55:45;94923.22;;;5.33;100.00
27429;BME280;14881;48.092;11.574;2023-11-21T01:58:11;94931.56;;;5.42;100.00
27429;BME280;14881;48.092;11.574;2023-11-21T02:00:38;94936.94;;;5.42;100.00
27429;BME280;14881;48.092;11.574;2023-11-21T02:03:05;94934.81;;;5.34;100.00
27429;BME280;14881;48.092;11.574;2023-11-21T02:05:33;94934.81;;;5.23;100.00
27429;BME280;14881;48.092;11.574;2023-11-21T02:07:59;94931.88;;;5.15;100.00
27429;BME280;14881;48.092;11.574;2023-11-21T02:10:26;94931.56;;;5.06;100.00
27429;BME280;14881;48.092;11.574;2023-11-21T02:12:52;94947.72;;;5.06;100.00
27429;BME280;14881;48.092;11.574;2023-11-21T02:15:19;94939.66;;;5.11;100.00
27429;BME280;14881;48.092;11.574;2023-11-21T02:17:46;94942.63;;;5.15;100.00
27429;BME280;14881;48.092;11.574;2023-11-21T02:20:14;94948.28;;;5.18;100.00
27429;BME280;14881;48.092;11.574;2023-11-21T02:22:43;94938.84;;;5.26;100.00
27429;BME280;14881;48.092;11.574;2023-11-21T02:25:11;94943.16;;;5.47;100.00
27429;BME280;14881;48.092;11.574;2023-11-21T02:27:37;94940.41;;;5.68;100.00
27429;BME280;14881;48.092;11.574;2023-11-21T02:30:04;94939.84;;;5.81;100.00
27429;BME280;14881;48.092;11.574;2023-11-21T02:32:33;94942.00;;;5.94;100.00
27429;BME280;14881;48.092;11.574;2023-11-21T02:35:13;94939.28;;;5.99;100.00
27429;BME280;14881;48.092;11.574;2023-11-21T02:37:40;94940.38;;;6.03;100.00
27429;BME280;14881;48.092;11.574;2023-11-21T02:40:09;94936.53;;;6.19;100.00
27429;BME280;14881;48.092;11.574;2023-11-21T02:42:36;94932.47;;;6.17;100.00
27429;BME280;14881;48.092;11.574;2023-11-21T02:45:03;94931.91;;;6.25;100.00
27429;BME280;14881;48.092;11.574;2023-11-21T02:47:31;94939.19;;;6.24;100.00
27429;BME280;14881;48.092;11.574;2023-11-21T02:49:57;94935.16;;;6.22;100.00
27429;BME280;14881;48.092;11.574;2023-11-21T02:52:24;94935.72;;;6.14;100.00
27429;BME280;14881;48.092;11.574;2023-11-21T02:54:50;94926.00;;;6.23;100.00
27429;BME280;14881;48.092;11.574;2023-11-21T02:57:17;94916.28;;;6.22;100.00
27429;BME280;14881;48.092;11.574;2023-11-21T02:59:45;94920.59;;;6.23;100.00
27429;BME280;14881;48.092;11.574;2023-11-21T03:02:11;94916.78;;;6.24;100.00
27429;BME280;14881;48.092;11.574;2023-11-21T03:04:38;94915.22;;;6.23;100.00
27429;BME280;14881;48.092;11.574;2023-11-21T03:07:04;94913.28;;;6.23;100.00
27429;BME280;14881;48.092;11.574;2023-11-21T03:09:31;94913.88;;;6.20;100.00
27429;BME280;14881;48.092;11.574;2023-11-21T03:11:57;94917.38;;;6.16;100.00
27429;BME280;14881;48.092;11.574;2023-11-21T03:14:23;94911.72;;;6.12;100.00
27429;BME280;14881;48.092;11.574;2023-11-21T03:16:50;94912.53;;;6.13;100.00
27429;BME280;14881;48.092;11.574;2023-11-21T03:19:17;94912.00;;;6.16;100.00
27429;BME280;14881;48.092;11.574;2023-11-21T03:21:44;94905.25;;;6.18;100.00
27429;BME280;14881;48.092;11.574;2023-11-21T03:24:10;94913.88;;;6.15;100.00
27429;BME280;14881;48.092;11.574;2023-11-21T03:26:37;94918.19;;;6.21;100.00
27429;BME280;14881;48.092;11.574;2023-11-21T03:29:04;94903.09;;;6.20;100.00
27429;BME280;14881;48.092;11.574;2023-11-21T03:31:30;94893.31;;;6.24;100.00
27429;BME280;14881;48.092;11.574;2023-11-21T03:33:58;94904.66;;;6.26;100.00
27429;BME280;14881;48.092;11.574;2023-11-21T03:36:24;94904.66;;;6.26;100.00
27429;BME280;14881;48.092;11.574;2023-11-21T03:38:51;94904.13;;;6.24;100.00
27429;BME280;14881;48.092;11.574;2023-11-21T03:41:17;94897.91;;;6.24;100.00
27429;BME280;14881;48.092;11.574;2023-11-21T03:43:46;94889.53;;;6.25;100.00
27429;BME280;14881;48.092;11.574;2023-11-21T03:46:13;94889.31;;;6.22;100.00
27429;BME280;14881;48.092;11.574;2023-11-21T03:48:39;94894.13;;;6.25;100.00
27429;BME280;14881;48.092;11.574;2023-11-21T03:51:06;94897.38;;;6.27;100.00
27429;BME280;14881;48.092;11.574;2023-11-21T03:53:33;94903.03;;;6.25;100.00
27429;BME280;14881;48.092;11.574;2023-11-21T03:56:02;94907.34;;;6.26;100.00
27429;BME280;14881;48.092;11.574;2023-11-21T03:58:28;94906.81;;;6.24;100.00
27429;BME280;14881;48.092;11.574;2023-11-21T04:00:56;94903.63;;;6.17;100.00
27429;BME280;14881;48.092;11.574;2023-11-21T04:03:22;94914.13;;;6.19;100.00
27429;BME280;14881;48.092;11.574;2023-11-21T04:05:49;94912.00;;;6.16;100.00
27429;BME280;14881;48.092;11.574;2023-11-21T04:08:16;94915.50;;;6.16;100.00
27429;BME280;14881;48.092;11.574;2023-11-21T04:10:42;94915.25;;;6.13;100.00
27429;BME280;14881;48.092;11.574;2023-11-21T04:13:09;94908.50;;;6.15;100.00
27429;BME280;14881;48.092;11.574;2023-11-21T04:15:36;94910.38;;;6.20;100.00
27429;BME280;14881;48.092;11.574;2023-11-21T04:18:02;94903.88;;;6.21;100.00
27429;BME280;14881;48.092;11.574;2023-11-21T04:20:29;94895.75;;;6.26;100.00
27429;BME280;14881;48.092;11.574;2023-11-21T04:22:55;94907.94;;;6.18;100.00
27429;BME280;14881;48.092;11.574;2023-11-21T04:25:22;94903.31;;;6.24;100.00
27429;BME280;14881;48.092;11.574;2023-11-21T04:27:50;94902.28;;;6.20;100.00
27429;BME280;14881;48.092;11.574;2023-11-21T04:30:16;94909.78;;;6.28;100.00
27429;BME280;14881;48.092;11.574;2023-11-21T04:32:43;94915.16;;;6.28;100.00
27429;BME280;14881;48.092;11.574;2023-11-21T04:35:09;94913.53;;;6.27;100.00
27429;BME280;14881;48.092;11.574;2023-11-21T04:37:36;94915.97;;;6.34;100.00
27429;BME280;14881;48.092;11.574;2023-11-21T04:40:03;94910.81;;;6.37;100.00
27429;BME280;14881;48.092;11.574;2023-11-21T04:42:34;94913.50;;;6.37;100.00
27429;BME280;14881;48.092;11.574;2023-11-21T04:45:01;94909.47;;;6.35;100.00
27429;BME280;14881;48.092;11.574;2023-11-21T04:47:27;94920.28;;;6.35;100.00
27429;BME280;14881;48.092;11.574;2023-11-21T04:49:56;94923.78;;;6.35;100.00
27429;BME280;14881;48.092;11.574;2023-11-21T04:52:22;94915.66;;;6.40;100.00
27429;BME280;14881;48.092;11.574;2023-11-21T04:54:49;94911.34;;;6.39;100.00
27429;BME280;14881;48.092;11.574;2023-11-21T04:57:16;94915.34;;;6.42;100.00
27429;BME280;14881;48.092;11.574;2023-11-21T04:59:44;94920.75;;;6.42;100.00
27429;BME280;14881;48.092;11.574;2023-11-21T05:02:10;94925.66;;;6.35;100.00
27429;BME280;14881;48.092;11.574;2023-11-21T05:04:56;94920.00;;;6.31;100.00
27429;BME280;14881;48.092;11.574;2023-11-21T05:07:22;94912.44;;;6.38;100.00
27429;BME280;14881;48.092;11.574;2023-11-21T05:09:49;94921.63;;;6.37;100.00
27429;BME280;14881;48.092;11.574;2023-11-21T05:12:15;94907.59;;;6.35;100.00
27429;BME280;14881;48.092;11.574;2023-11-21T05:14:42;94914.06;;;6.34;100.00
27429;BME280;14881;48.092;11.574;2023-11-21T05:17:09;94908.66;;;6.34;100.00
27429;BME280;14881;48.092;11.574;2023-11-21T05:19:36;94909.22;;;6.36;100.00
27429;BME280;14881;48.092;11.574;2023-11-21T05:22:03;94922.44;;;6.33;100.00
27429;BME280;14881;48.092;11.574;2023-11-21T05:24:29;94918.13;;;6.26;100.00
27429;BME280;14881;48.092;11.574;2023-11-21T05:26:56;94930.00;;;6.25;100.00
27429;BME280;14881;48.092;11.574;2023-11-21T05:29:22;94929.47;;;6.23;100.00
27429;BME280;14881;48.092;11.574;2023-11-21T05:31:49;94927.88;;;6.22;100.00
27429;BME280;14881;48.092;11.574;2023-11-21T05:34:16;94937.56;;;6.23;100.00
27429;BME280;14881;48.092;11.574;2023-11-21T05:36:44;94933.25;;;6.27;100.00
27429;BME280;14881;48.092;11.574;2023-11-21T05:39:11;94936.00;;;6.17;100.00
27429;BME280;14881;48.092;11.574;2023-11-21T05:41:38;94939.47;;;6.23;100.00
27429;BME280;14881;48.092;11.574;2023-11-21T05:44:04;94930.00;;;6.25;100.00
27429;BME280;14881;48.092;11.574;2023-11-21T05:46:31;94940.53;;;6.27;100.00
27429;BME280;14881;48.092;11.574;2023-11-21T05:48:57;94934.31;;;6.32;100.00
27429;BME280;14881;48.092;11.574;2023-11-21T05:51:24;94938.63;;;6.27;100.00
27429;BME280;14881;48.092;11.574;2023-11-21T05:53:51;94938.34;;;6.29;100.00
27429;BME280;14881;48.092;11.574;2023-11-21T05:56:17;94933.56;;;6.16;100.00
27429;BME280;14881;48.092;11.574;2023-11-21T05:58:44;94941.59;;;6.26;100.00
27429;BME280;14881;48.092;11.574;2023-11-21T06:01:10;94947.56;;;6.23;100.00
27429;BME280;14881;48.092;11.574;2023-11-21T06:03:38;94945.09;;;6.26;100.00
27429;BME280;14881;48.092;11.574;2023-11-21T06:06:05;94945.91;;;6.27;100.00
27429;BME280;14881;48.092;11.574;2023-11-21T06:08:33;94946.19;;;6.25;100.00
27429;BME280;14881;48.092;11.574;2023-11-21T06:10:59;94948.88;;;6.25;100.00
27429;BME280;14881;48.092;11.574;2023-11-21T06:13:26;94944.56;;;6.24;100.00
27429;BME280;14881;48.092;11.574;2023-11-21T06:15:53;94949.69;;;6.26;100.00
27429;BME280;14881;48.092;11.574;2023-11-21T06:18:20;94952.13;;;6.27;100.00
27429;BME280;14881;48.092;11.574;2023-11-21T06:20:47;94959.94;;;6.29;100.00
27429;BME280;14881;48.092;11.574;2023-11-21T06:23:13;94965.88;;;6.31;100.00
27429;BME280;14881;48.092;11.574;2023-11-21T06:25:40;94963.72;;;6.28;100.00
27429;BME280;14881;48.092;11.574;2023-11-21T06:28:07;94970.16;;;6.37;100.00
27429;BME280;14881;48.092;11.574;2023-11-21T06:30:34;94968.56;;;6.31;100.00
27429;BME280;14881;48.092;11.574;2023-11-21T06:33:00;94971.81;;;6.28;100.00
27429;BME280;14881;48.092;11.574;2023-11-21T06:35:26;94971.53;;;6.29;100.00
27429;BME280;14881;48.092;11.574;2023-11-21T06:37:56;94971.00;;;6.33;100.00
27429;BME280;14881;48.092;11.574;2023-11-21T06:40:22;94970.72;;;6.34;100.00
27429;BME280;14881;48.092;11.574;2023-11-21T06:42:49;94974.16;;;6.45;100.00
27429;BME280;14881;48.092;11.574;2023-11-21T06:45:16;94976.09;;;6.39;100.00
27429;BME280;14881;48.092;11.574;2023-11-21T06:47:43;94974.97;;;6.45;100.00
27429;BME280;14881;48.092;11.574;2023-11-21T06:50:10;94978.19;;;6.47;100.00
27429;BME280;14881;48.092;11.574;2023-11-21T06:52:37;94981.97;;;6.51;100.00
27429;BME280;14881;48.092;11.574;2023-11-21T06:55:05;94985.19;;;6.53;100.00
27429;BME280;14881;48.092;11.574;2023-11-21T06:57:34;94985.75;;;6.55;100.00
27429;BME280;14881;48.092;11.574;2023-11-21T07:00:02;94992.47;;;6.58;100.00
27429;BME280;14881;48.092;11.574;2023-11-21T07:02:29;94989.19;;;6.61;100.00
27429;BME280;14881;48.092;11.574;2023-11-21T07:04:55;94991.91;;;6.61;100.00
27429;BME280;14881;48.092;11.574;2023-11-21T07:07:22;94992.47;;;6.58;100.00
27429;BME280;14881;48.092;11.574;2023-11-21T07:09:48;94990.28;;;6.60;100.00
27429;BME280;14881;48.092;11.574;2023-11-21T07:12:15;94996.75;;;6.59;100.00
27429;BME280;14881;48.092;11.574;2023-11-21T07:14:41;94986.53;;;6.56;100.00
27429;BME280;14881;48.092;11.574;2023-11-21T07:17:11;94992.75;;;6.51;100.00
27429;BME280;14881;48.092;11.574;2023-11-21T07:19:37;94999.75;;;6.57;100.00
27429;BME280;14881;48.092;11.574;2023-11-21T07:22:04;94999.19;;;6.60;100.00
27429;BME280;14881;48.092;11.574;2023-11-21T07:24:31;94997.88;;;6.58;100.00
27429;BME280;14881;48.092;11.574;2023-11-21T07:26:58;95002.72;;;6.56;100.00
27429;BME280;14881;48.092;11.574;2023-11-21T07:29:24;95005.41;;;6.61;100.00
27429;BME280;14881;48.092;11.574;2023-11-21T07:31:51;95012.16;;;6.58;100.00
27429;BME280;14881;48.092;11.574;2023-11-21T07:34:18;95010.50;;;6.62;100.00
27429;BME280;14881;48.092;11.574;2023-11-21T07:36:45;95001.03;;;6.70;100.00
27429;BME280;14881;48.092;11.574;2023-11-21T07:39:11;95002.13;;;6.74;100.00
27429;BME280;14881;48.092;11.574;2023-11-21T07:41:38;95005.03;;;6.78;100.00
27429;BME280;14881;48.092;11.574;2023-11-21T07:44:10;95010.97;;;6.80;100.00
27429;BME280;14881;48.092;11.574;2023-11-21T07:46:37;95004.47;;;6.86;100.00
27429;BME280;14881;48.092;11.574;2023-11-21T07:49:03;95012.03;;;6.84;100.00
27429;BME280;14881;48.092;11.574;2023-11-21T07:51:30;95015.81;;;6.88;100.00
27429;BME280;14881;48.092;11.574;2023-11-21T07:53:57;95017.38;;;6.94;100.00
27429;BME280;14881;48.092;11.574;2023-11-21T07:56:23;95018.22;;;6.89;100.00
27429;BME280;14881;48.092;11.574;2023-11-21T07:58:49;95012.78;;;6.94;100.00
27429;BME280;14881;48.092;11.574;2023-11-21T08:01:18;95001.47;;;6.92;100.00
27429;BME280;14881;48.092;11.574;2023-11-21T08:03:44;95011.16;;;6.93;100.00
27429;BME280;14881;48.092;11.574;2023-11-21T08:06:11;95020.06;;;6.99;100.00
27429;BME280;14881;48.092;11.574;2023-11-21T08:08:38;95007.34;;;7.05;100.00
27429;BME280;14881;48.092;11.574;2023-11-21T08:11:05;95015.16;;;7.06;100.00
27429;BME280;14881;48.092;11.574;2023-11-21T08:13:34;95009.72;;;7.11;100.00
27429;BME280;14881;48.092;11.574;2023-11-21T08:16:00;95010.22;;;7.18;100.00
27429;BME280;14881;48.092;11.574;2023-11-21T08:18:29;95013.16;;;7.22;100.00
27429;BME280;14881;48.092;11.574;2023-11-21T08:20:56;95011.22;;;7.27;100.00
27429;BME280;14881;48.092;11.574;2023-11-21T08:23:23;95005.81;;;7.27;100.00
27429;BME280;14881;48.092;11.574;2023-11-21T08:25:52;95004.97;;;7.32;100.00
27429;BME280;14881;48.092;11.574;2023-11-21T08:28:19;95009.00;;;7.40;100.00
27429;BME280;14881;48.092;11.574;2023-11-21T08:30:45;95008.75;;;7.31;100.00
27429;BME280;14881;48.092;11.574;2023-11-21T08:33:11;95011.97;;;7.38;100.00
27429;BME280;14881;48.092;11.574;2023-11-21T08:35:39;95012.44;;;7.45;100.00
27429;BME280;14881;48.092;11.574;2023-11-21T08:38:05;95004.41;;;7.40;100.00
27429;BME280;14881;48.092;11.574;2023-11-21T08:40:32;95005.13;;;7.46;100.00
27429;BME280;14881;48.092;11.574;2023-11-21T08:42:59;95005.72;;;7.43;100.00
27429;BME280;14881;48.092;11.574;2023-11-21T08:45:26;95006.28;;;7.40;100.00
27429;BME280;14881;48.092;11.574;2023-11-21T08:47:52;95001.06;;;7.48;100.00
27429;BME280;14881;48.092;11.574;2023-11-21T08:50:19;95010.00;;;7.49;100.00
27429;BME280;14881;48.092;11.574;2023-11-21T08:52:46;95006.72;;;7.52;100.00
27429;BME280;14881;48.092;11.574;2023-11-21T08:55:12;95004.66;;;7.73;100.00
27429;BME280;14881;48.092;11.574;2023-11-21T08:57:40;95006.41;;;7.87;100.00
27429;BME280;14881;48.092;11.574;2023-11-21T09:00:09;95002.31;;;7.95;100.00
27429;BME280;14881;48.092;11.574;2023-11-21T09:02:37;95002.19;;;8.05;100.00
27429;BME280;14881;48.092;11.574;2023-11-21T09:05:04;95003.16;;;8.14;100.00
27429;BME280;14881;48.092;11.574;2023-11-21T09:07:31;95006.41;;;8.16;100.00
27429;BME280;14881;48.092;11.574;2023-11-21T09:09:58;95005.19;;;8.03;100.00
27429;BME280;14881;48.092;11.574;2023-11-21T09:12:24;95009.69;;;8.13;100.00
27429;BME280;14881;48.092;11.574;2023-11-21T09:14:51;95007.81;;;8.14;100.00
27429;BME280;14881;48.092;11.574;2023-11-21T09:17:18;95025.34;;;8.16;100.00
27429;BME280;14881;48.092;11.574;2023-11-21T09:19:44;95022.09;;;8.14;100.00
27429;BME280;14881;48.092;11.574;2023-11-21T09:22:15;95030.91;;;8.30;100.00
27429;BME280;14881;48.092;11.574;2023-11-21T09:24:42;95030.75;;;8.45;100.00
27429;BME280;14881;48.092;11.574;2023-11-21T09:27:09;95035.59;;;8.48;100.00
27429;BME280;14881;48.092;11.574;2023-11-21T09:29:35;95025.63;;;8.44;100.00
27429;BME280;14881;48.092;11.574;2023-11-21T09:32:03;95037.56;;;8.43;100.00
27429;BME280;14881;48.092;11.574;2023-11-21T09:34:33;95038.31;;;8.48;100.00
27429;BME280;14881;48.092;11.574;2023-11-21T09:37:04;95047.63;;;8.61;100.00
27429;BME280;14881;48.092;11.574;2023-11-21T09:39:32;95043.19;;;8.70;100.00
27429;BME280;14881;48.092;11.574;2023-11-21T09:42:07;95038.25;;;8.77;100.00
27429;BME280;14881;48.092;11.574;2023-11-21T09:44:44;95039.50;;;8.61;100.00
27429;BME280;14881;48.092;11.574;2023-11-21T09:47:14;95042.13;;;8.47;100.00
27429;BME280;14881;48.092;11.574;2023-11-21T09:49:47;95040.94;;;8.53;100.00
27429;BME280;14881;48.092;11.574;2023-11-21T09:52:19;95029.59;;;8.51;100.00
27429;BME280;14881;48.092;11.574;2023-11-21T09:54:50;95034.84;;;8.43;100.00
27429;BME280;14881;48.092;11.574;2023-11-21T09:57:19;95036.50;;;8.38;100.00
27429;BME280;14881;48.092;11.574;2023-11-21T09:59:53;95045.72;;;8.37;100.00
27429;BME280;14881;48.092;11.574;2023-11-21T10:02:25;95033.53;;;8.40;100.00
27429;BME280;14881;48.092;11.574;2023-11-21T10:04:53;95041.72;;;8.30;100.00
27429;BME280;14881;48.092;11.574;2023-11-21T10:07:20;95035.13;;;8.41;100.00
27429;BME280;14881;48.092;11.574;2023-11-21T10:09:47;95036.34;;;8.54;100.00
27429;BME280;14881;48.092;11.574;2023-11-21T10:12:15;95030.31;;;8.62;100.00
27429;BME280;14881;48.092;11.574;2023-11-21T10:14:42;95035.94;;;8.65;100.00
27429;BME280;14881;48.092;11.574;2023-11-21T10:17:10;95034.91;;;8.61;100.00
27429;BME280;14881;48.092;11.574;2023-11-21T10:19:39;95028.88;;;8.46;100.00
27429;BME280;14881;48.092;11.574;2023-11-21T10:22:06;95036.09;;;8.50;100.00
27429;BME280;14881;48.092;11.574;2023-11-21T10:24:33;95038.06;;;8.68;100.00
27429;BME280;14881;48.092;11.574;2023-11-21T10:27:14;95037.06;;;8.83;100.00
27429;BME280;14881;48.092;11.574;2023-11-21T10:29:40;95030.38;;;8.99;100.00
27429;BME280;14881;48.092;11.574;2023-11-21T10:32:08;95024.28;;;9.07;100.00
27429;BME280;14881;48.092;11.574;2023-11-21T10:34:34;95018.06;;;9.26;100.00
27429;BME280;14881;48.092;11.574;2023-11-21T10:37:11;95025.47;;;9.39;100.00
27429;BME280;14881;48.092;11.574;2023-11-21T10:39:38;95024.38;;;9.40;100.00
27429;BME280;14881;48.092;11.574;2023-11-21T10:42:08;95033.06;;;9.56;100.00
27429;BME280;14881;48.092;11.574;2023-11-21T10:44:34;95029.28;;;9.57;100.00
27429;BME280;14881;48.092;11.574;2023-11-21T10:47:01;95034.63;;;9.43;100.00
27429;BME280;14881;48.092;11.574;2023-11-21T10:49:28;95029.22;;;9.43;100.00
27429;BME280;14881;48.092;11.574;2023-11-21T10:51:55;95028.47;;;9.37;100.00
27429;BME280;14881;48.092;11.574;2023-11-21T10:54:24;95023.94;;;9.33;100.00
27429;BME280;14881;48.092;11.574;2023-11-21T10:56:56;95023.44;;;9.31;100.00
27429;BME280;14881;48.092;11.574;2023-11-21T10:59:23;95030.97;;;9.34;100.00
27429;BME280;14881;48.092;11.574;2023-11-21T11:01:51;95023.78;;;9.24;100.00
27429;BME280;14881;48.092;11.574;2023-11-21T11:04:19;95029.06;;;9.16;100.00
27429;BME280;14881;48.092;11.574;2023-11-21T11:06:50;95040.13;;;9.19;100.00
27429;BME280;14881;48.092;11.574;2023-11-21T11:09:17;95029.78;;;9.02;100.00
27429;BME280;14881;48.092;11.574;2023-11-21T11:11:45;95030.47;;;9.13;100.00
27429;BME280;14881;48.092;11.574;2023-11-21T11:14:12;95027.75;;;9.13;100.00
27429;BME280;14881;48.092;11.574;2023-11-21T11:16:40;95030.00;;;9.06;100.00
27429;BME280;14881;48.092;11.574;2023-11-21T11:19:07;95033.75;;;9.10;100.00
27429;BME280;14881;48.092;11.574;2023-11-21T11:21:44;95035.31;;;9.16;100.00
27429;BME280;14881;48.092;11.574;2023-11-21T11:24:30;95028.34;;;9.29;100.00
27429;BME280;14881;48.092;11.574;2023-11-21T11:27:08;95029.56;;;9.36;100.00
27429;BME280;14881;48.092;11.574;2023-11-21T11:29:43;95024.53;;;9.49;100.00
27429;BME280;14881;48.092;11.574;2023-11-21T11:32:24;95021.06;;;9.62;100.00
27429;BME280;14881;48.092;11.574;2023-11-21T11:35:01;95022.13;;;9.80;100.00
27429;BME280;14881;48.092;11.574;2023-11-21T11:37:30;95011.97;;;10.04;100.00
27429;BME280;14881;48.092;11.574;2023-11-21T11:39:56;95014.69;;;10.18;100.00
27429;BME280;14881;48.092;11.574;2023-11-21T11:42:24;95011.22;;;10.31;100.00
27429;BME280;14881;48.092;11.574;2023-11-21T11:44:51;95008.22;;;10.32;100.00
27429;BME280;14881;48.092;11.574;2023-11-21T11:47:21;95009.41;;;10.26;100.00
27429;BME280;14881;48.092;11.574;2023-11-21T11:50:02;95002.81;;;10.00;100.00
27429;BME280;14881;48.092;11.574;2023-11-21T11:52:40;95015.34;;;9.63;100.00
27429;BME280;14881;48.092;11.574;2023-11-21T11:55:08;95015.63;;;9.62;100.00
27429;BME280;14881;48.092;11.574;2023-11-21T11:57:37;95015.94;;;9.60;100.00
27429;BME280;14881;48.092;11.574;2023-11-21T12:00:08;95012.47;;;9.73;100.00
27429;BME280;14881;48.092;11.574;2023-11-21T12:02:36;95006.78;;;9.89;100.00
27429;BME280;14881;48.092;11.574;2023-11-21T12:05:08;95002.44;;;9.88;100.00
27429;BME280;14881;48.092;11.574;2023-11-21T12:07:45;94999.75;;;9.88;100.00
27429;BME280;14881;48.092;11.574;2023-11-21T12:10:14;95009.59;;;9.84;100.00
27429;BME280;14881;48.092;11.574;2023-11-21T12:12:45;95013.72;;;9.62;100.00
27429;BME280;14881;48.092;11.574;2023-11-21T12:15:15;95016.81;;;9.56;100.00
27429;BME280;14881;48.092;11.574;2023-11-21T12:17:43;95017.31;;;9.58;100.00
27429;BME280;14881;48.092;11.574;2023-11-21T12:20:11;95021.59;;;9.45;100.00
27429;BME280;14881;48.092;11.574;2023-11-21T12:22:42;95017.91;;;9.55;100.00
27429;BME280;14881;48.092;11.574;2023-11-21T12:25:10;95015.94;;;9.60;100.00
27429;BME280;14881;48.092;11.574;2023-11-21T12:27:43;95018.28;;;9.67;100.00
27429;BME280;14881;48.092;11.574;2023-11-21T12:30:13;95018.78;;;9.69;100.00
27429;BME280;14881;48.092;11.574;2023-11-21T12:32:39;95023.81;;;9.75;100.00
27429;BME280;14881;48.092;11.574;2023-11-21T12:35:08;95019.97;;;9.63;100.00
27429;BME280;14881;48.092;11.574;2023-11-21T12:37:36;95002.13;;;9.75;100.00
27429;BME280;14881;48.092;11.574;2023-11-21T12:40:03;95005.00;;;9.98;100.00
27429;BME280;14881;48.092;11.574;2023-11-21T12:42:30;94999.50;;;10.03;100.00
27429;BME280;14881;48.092;11.574;2023-11-21T12:45:18;95002.50;;;10.01;100.00
27429;BME280;14881;48.092;11.574;2023-11-21T12:47:47;95004.59;;;10.04;100.00
27429;BME280;14881;48.092;11.574;2023-11-21T12:50:14;95003.94;;;10.12;100.00
27429;BME280;14881;48.092;11.574;2023-11-21T12:52:42;95005.53;;;10.00;100.00